National Weather Service United States Department of Commerce

Airport Observations and Forecasts (from NWS CLE)

Cleveland Hopkins International Airport

 

FAA details


000
FTUS41 KCLE 170526
TAFCLE
TAF
KCLE 170526Z 1706/1812 VRB04KT P6SM SKC
FM171600 31010KT P6SM FEW250
FM180000 VRB04KT P6SM FEW250=

24 hours of observations

7-day forecast

Hourly - Tabular forecast  Hourly - Graph forecast

Terminal Information Board

Toledo Express Airport

 

FAA details


000
FTUS41 KCLE 170526
TAFTOL
TAF
KTOL 170526Z 1706/1806 VRB04KT P6SM FEW250
FM171500 32010KT P6SM SKC
FM180300 VRB04KT P6SM BKN250=

24 hours of observations

7-day forecast

Hourly - Tabular forecast  Hourly - Graph forecast

Terminal Information Board

Findlay Airport

 

FAA details


000
FTUS41 KCLE 170526
TAFFDY
TAF
KFDY 170526Z 1706/1806 VRB04KT P6SM FEW100
FM171600 32010KT P6SM SKC
FM180200 VRB04KT P6SM BKN250=

24 hours of observations

7-day forecast

Hourly - Tabular forecast   Hourly - Graph forecast

Terminal Information Board

Mansfield Lahm Airport

 

FAA details


000
FTUS41 KCLE 170526
TAFMFD
TAF
KMFD 170526Z 1706/1806 VRB04KT P6SM SKC
FM171600 31010KT P6SM SKC
FM180100 VRB03KT P6SM FEW250=

24 hours of observations

7-day forecast

Hourly - Tabular forecast   Hourly - Graph forecast

Terminal Information Board

Akron-Canton Airport

 

FAA details


000
FTUS41 KCLE 170526
TAFCAK
TAF
KCAK 170526Z 1706/1806 27005KT P6SM SKC
FM171500 31011KT P6SM FEW250
FM180200 VRB03KT P6SM FEW250=

24 hours of observations

7-day forecast

Hourly - Tabular forecast   Hourly - Graph forecast

Terminal Information Board

Youngstown-Warren Regional Airport

 

FAA details


000
FTUS41 KCLE 170526
TAFYNG
TAF
KYNG 170526Z 1706/1806 VRB03KT P6SM FEW100
FM171500 30010KT P6SM FEW250
FM180000 VRB04KT P6SM FEW250=

24 hours of observations

7-day forecast

Hourly - Tabular forecast   Hourly - Graph forecast

Terminal Information Board

Erie International Airport

 

FAA details


000
FTUS41 KCLE 170526
TAFERI
TAF
KERI 170526Z 1706/1806 19007KT P6SM SCT100
FM170900 31010KT P6SM FEW100
FM171400 29012G20KT P6SM FEW250
FM172300 26010KT P6SM FEW200
FM180400 VRB04KT P6SM FEW200=

24 hours of observations

7-day forecast

Hourly - Tabular Forecast  Hourly - Graph forecast

Terminal Information Board

The National Weather Service is Cleveland is responsible for the Terminal Areodome Forecasts for seven area airports in northern Ohio and northwest Pennsylvania.  Routine issuance times are by 00Z, 06Z, 12Z, and 18Z with amendments, as needed.

Latest Surface Analysis

Additional Current Conditions

Satellite

Radar
 
 

 

Center Weather Service Unit, Oberlin/ZOB

CWA/MIS    

 

The National Weather Service Center Weather Service Unit in Oberlin is responsible for the airspace above northern Ohio and northwest Pennsylvania and ajoining areas.

 

Aviaiton Weather Center National, AWC

AIRMETS & SIGMETS